createdAt,value
2018-04-07T00:00:18.478Z,8.80
2018-04-07T00:02:49.697Z,8.80
2018-04-07T00:05:20.912Z,8.80
2018-04-07T00:07:52.832Z,8.90
2018-04-07T00:10:24.016Z,8.80
2018-04-07T00:12:55.975Z,8.80
2018-04-07T00:15:27.359Z,8.80
2018-04-07T00:17:58.531Z,8.70
2018-04-07T00:20:29.816Z,8.70
2018-04-07T00:23:01.823Z,8.50
2018-04-07T00:25:33.095Z,8.60
2018-04-07T00:28:04.480Z,8.50
2018-04-07T00:30:36.493Z,8.50
2018-04-07T00:33:08.473Z,8.40
2018-04-07T00:35:39.808Z,8.40
2018-04-07T00:38:11.009Z,8.50
2018-04-07T00:40:42.258Z,8.40
2018-04-07T00:43:13.459Z,8.50
2018-04-07T00:45:44.930Z,8.50
2018-04-07T00:48:16.892Z,8.40
2018-04-07T00:50:48.899Z,8.50
2018-04-07T00:53:20.116Z,8.50
2018-04-07T00:55:51.377Z,8.40
2018-04-07T00:58:22.614Z,8.40
2018-04-07T01:00:53.820Z,8.30
2018-04-07T01:03:25.750Z,8.30
2018-04-07T01:05:56.965Z,8.20
2018-04-07T01:08:28.221Z,8.20
2018-04-07T01:10:59.411Z,8.20
2018-04-07T01:13:31.353Z,8.10
2018-04-07T01:16:02.948Z,8.10
2018-04-07T01:18:34.195Z,8.20
2018-04-07T01:21:05.387Z,8.20
2018-04-07T01:23:36.608Z,8.20
2018-04-07T01:26:07.787Z,8.00
2018-04-07T01:28:39.006Z,8.10
2018-04-07T01:31:10.236Z,8.00
2018-04-07T01:33:41.400Z,8.10
2018-04-07T01:36:12.728Z,8.10
2018-04-07T01:38:44.066Z,8.00
2018-04-07T01:41:15.307Z,7.90
2018-04-07T01:43:46.476Z,7.90
2018-04-07T01:46:17.677Z,8.00
2018-04-07T01:48:48.854Z,7.90
2018-04-07T01:51:20.064Z,8.00
2018-04-07T01:53:51.315Z,7.90
2018-04-07T01:56:22.612Z,7.90
2018-04-07T01:58:53.800Z,7.90
2018-04-07T02:01:25.020Z,7.90
2018-04-07T02:03:56.980Z,7.90
2018-04-07T02:06:28.938Z,7.80
2018-04-07T02:09:00.866Z,7.90
2018-04-07T02:11:32.072Z,7.90
2018-04-07T02:14:03.305Z,7.90
2018-04-07T02:16:34.602Z,7.80
2018-04-07T02:19:05.794Z,7.80
2018-04-07T02:21:37.030Z,7.70
2018-04-07T02:24:08.360Z,7.60
2018-04-07T02:26:40.461Z,7.70
2018-04-07T02:29:11.633Z,7.60
2018-04-07T02:31:42.857Z,7.60
2018-04-07T02:34:14.037Z,7.70
2018-04-07T02:36:45.649Z,7.70
2018-04-07T02:39:16.849Z,7.60
2018-04-07T02:41:48.199Z,7.50
2018-04-07T02:44:19.404Z,7.50
2018-04-07T02:46:50.649Z,7.50
2018-04-07T02:49:21.833Z,7.50
2018-04-07T02:51:53.064Z,7.50
2018-04-07T02:54:24.314Z,7.60
2018-04-07T02:56:55.732Z,7.60
2018-04-07T02:59:26.953Z,7.40
2018-04-07T03:01:58.167Z,7.40
2018-04-07T03:04:29.395Z,7.40
2018-04-07T03:07:00.641Z,7.30
2018-04-07T03:09:32.606Z,7.30
2018-04-07T03:12:04.575Z,7.30
2018-04-07T03:14:36.548Z,7.30
2018-04-07T03:17:08.490Z,7.30
2018-04-07T03:19:40.672Z,7.30
2018-04-07T03:22:12.622Z,7.30
2018-04-07T03:24:44.816Z,7.20
2018-04-07T03:27:16.008Z,7.20
2018-04-07T03:29:47.226Z,7.30
2018-04-07T03:32:18.434Z,7.30
2018-04-07T03:34:49.645Z,7.30
2018-04-07T03:37:20.992Z,7.40
2018-04-07T03:39:52.225Z,7.40
2018-04-07T03:42:23.792Z,7.30
2018-04-07T03:44:55.011Z,7.30
2018-04-07T03:47:26.209Z,7.30
2018-04-07T03:49:57.703Z,7.30
2018-04-07T03:52:28.912Z,7.30
2018-04-07T03:55:00.137Z,7.30
2018-04-07T03:57:31.413Z,7.40
2018-04-07T04:00:02.624Z,7.50
2018-04-07T04:02:34.572Z,7.40
2018-04-07T04:05:06.696Z,7.30
2018-04-07T04:07:37.937Z,7.30
2018-04-07T04:10:09.157Z,7.40
2018-04-07T04:12:40.350Z,7.40
2018-04-07T04:15:11.559Z,7.30
2018-04-07T04:17:43.212Z,7.40
2018-04-07T04:20:14.384Z,7.30
2018-04-07T04:22:45.613Z,7.30
2018-04-07T04:25:16.831Z,7.30
2018-04-07T04:27:48.031Z,7.40
2018-04-07T04:30:19.223Z,7.40
2018-04-07T04:32:50.469Z,7.40
2018-04-07T04:35:21.644Z,7.40
2018-04-07T04:37:52.981Z,7.40
2018-04-07T04:40:24.161Z,7.40
2018-04-07T04:42:55.699Z,7.40
2018-04-07T04:45:26.859Z,7.40
2018-04-07T04:47:58.068Z,7.60
2018-04-07T04:50:29.223Z,7.60
2018-04-07T04:53:00.408Z,7.70
2018-04-07T04:55:32.370Z,7.60
2018-04-07T04:58:04.382Z,7.60
2018-04-07T05:00:35.591Z,7.60
2018-04-07T05:03:06.802Z,7.60
2018-04-07T05:05:37.994Z,7.80
2018-04-07T05:08:09.210Z,7.80
2018-04-07T05:10:40.371Z,7.70
2018-04-07T05:13:11.572Z,7.80
2018-04-07T05:15:42.877Z,7.80
2018-04-07T05:18:14.144Z,7.90
2018-04-07T05:20:46.104Z,7.90
2018-04-07T05:23:17.296Z,7.90
2018-04-07T05:25:48.480Z,7.90
2018-04-07T05:28:19.772Z,8.00
2018-04-07T05:30:50.967Z,7.90
2018-04-07T05:33:22.204Z,7.90
2018-04-07T05:35:53.387Z,8.00
2018-04-07T05:38:25.359Z,8.10
2018-04-07T05:40:57.304Z,8.10
2018-04-07T05:43:28.464Z,8.10
2018-04-07T05:46:00.780Z,8.20
2018-04-07T05:48:31.938Z,8.10
2018-04-07T05:51:03.452Z,8.20
2018-04-07T05:53:34.638Z,8.30
2018-04-07T05:56:05.828Z,8.30
2018-04-07T05:58:37.107Z,8.30
2018-04-07T06:01:08.295Z,8.20
2018-04-07T06:03:40.237Z,8.50
2018-04-07T06:06:11.448Z,8.50
2018-04-07T06:08:42.675Z,8.50
2018-04-07T06:11:13.851Z,8.50
2018-04-07T06:13:45.035Z,8.60
2018-04-07T06:16:17.008Z,8.70
2018-04-07T06:18:48.257Z,8.70
2018-04-07T06:21:19.516Z,8.60
2018-04-07T06:23:50.670Z,8.70
2018-04-07T06:26:21.895Z,8.60
2018-04-07T06:28:53.165Z,8.60
2018-04-07T06:31:25.099Z,8.70
2018-04-07T06:33:56.321Z,8.70
2018-04-07T06:36:28.273Z,8.80
2018-04-07T06:39:00.263Z,8.90
2018-04-07T06:41:31.465Z,8.80
2018-04-07T06:44:02.675Z,9.10
2018-04-07T06:46:33.942Z,9.10
2018-04-07T06:49:05.198Z,9.00
2018-04-07T06:51:36.408Z,9.00
2018-04-07T06:54:07.605Z,8.90
2018-04-07T06:56:39.512Z,9.10
2018-04-07T06:59:10.943Z,9.00
2018-04-07T07:01:42.157Z,9.00
2018-04-07T07:04:14.139Z,9.20
2018-04-07T07:06:45.351Z,9.10
2018-04-07T07:09:16.625Z,9.20
2018-04-07T07:11:47.815Z,9.40
2018-04-07T07:14:19.130Z,9.50
2018-04-07T07:16:50.997Z,9.60
2018-04-07T07:19:22.300Z,9.70
2018-04-07T07:21:53.500Z,9.70
2018-04-07T07:24:24.755Z,9.70
2018-04-07T07:26:55.977Z,9.80
2018-04-07T07:29:27.217Z,9.80
2018-04-07T07:31:58.394Z,10.00
2018-04-07T07:34:29.632Z,10.00
2018-04-07T07:37:00.820Z,10.10
2018-04-07T07:39:32.211Z,10.10
2018-04-07T07:42:03.455Z,10.20
2018-04-07T07:44:34.684Z,10.40
2018-04-07T07:47:05.896Z,10.40
2018-04-07T07:49:37.866Z,10.50
2018-04-07T07:52:09.097Z,10.50
2018-04-07T07:54:40.315Z,10.70
2018-04-07T07:57:12.283Z,10.90
2018-04-07T07:59:45.003Z,10.90
2018-04-07T08:02:16.278Z,10.90
2018-04-07T08:04:47.568Z,11.00
2018-04-07T08:07:19.506Z,11.10
2018-04-07T08:09:50.756Z,11.10
2018-04-07T08:12:22.736Z,11.20
2018-04-07T08:14:54.744Z,11.30
2018-04-07T08:17:25.981Z,11.30
2018-04-07T08:19:57.313Z,11.40
2018-04-07T08:22:28.546Z,11.50
2018-04-07T08:24:59.750Z,11.50
2018-04-07T08:27:30.987Z,11.50
2018-04-07T08:30:02.234Z,11.60
2018-04-07T08:32:33.533Z,11.70
2018-04-07T08:35:04.742Z,11.80
2018-04-07T08:37:35.946Z,12.00
2018-04-07T08:40:07.160Z,12.00
2018-04-07T08:42:39.165Z,12.00
2018-04-07T08:45:11.138Z,12.00
2018-04-07T08:47:42.439Z,12.00
2018-04-07T08:50:13.628Z,12.20
2018-04-07T08:52:44.848Z,12.30
2018-04-07T08:55:16.024Z,12.40
2018-04-07T08:57:47.261Z,12.40
2018-04-07T09:00:18.517Z,12.50
2018-04-07T09:02:49.763Z,12.50
2018-04-07T09:05:21.663Z,12.70
2018-04-07T09:07:52.914Z,12.60
2018-04-07T09:10:24.079Z,12.70
2018-04-07T09:12:55.568Z,12.70
2018-04-07T09:15:27.512Z,13.00
2018-04-07T09:17:58.763Z,13.00
2018-04-07T09:20:30.062Z,13.00
2018-04-07T09:23:01.264Z,13.10
2018-04-07T09:25:33.279Z,13.20
2018-04-07T09:28:04.484Z,13.10
2018-04-07T09:30:36.439Z,13.20
2018-04-07T09:33:07.627Z,13.20
2018-04-07T09:35:38.851Z,13.30
2018-04-07T09:38:10.133Z,13.50
2018-04-07T09:40:41.362Z,13.50
2018-04-07T09:43:12.578Z,13.70
2018-04-07T09:45:43.768Z,13.90
2018-04-07T09:48:14.979Z,13.90
2018-04-07T09:50:46.171Z,14.00
2018-04-07T09:53:18.128Z,14.20
2018-04-07T09:55:49.360Z,14.20
2018-04-07T09:58:20.637Z,14.30
2018-04-07T10:00:52.680Z,14.40
2018-04-07T10:03:23.955Z,14.40
2018-04-07T10:05:55.923Z,14.50
2018-04-07T10:08:27.878Z,14.60
2018-04-07T10:10:59.194Z,14.60
2018-04-07T10:13:31.908Z,14.80
2018-04-07T10:16:03.206Z,14.80
2018-04-07T10:18:34.412Z,14.90
2018-04-07T10:21:05.886Z,15.10
2018-04-07T10:23:37.051Z,15.10
2018-04-07T10:26:10.043Z,15.40
2018-04-07T10:28:41.990Z,15.50
2018-04-07T10:31:13.240Z,15.50
2018-04-07T10:33:44.499Z,15.60
2018-04-07T10:36:16.483Z,15.80
2018-04-07T10:38:47.719Z,15.80
2018-04-07T10:41:19.744Z,15.70
2018-04-07T10:43:50.915Z,15.70
2018-04-07T10:46:23.221Z,15.80
2018-04-07T10:48:54.419Z,15.80
2018-04-07T10:51:26.452Z,16.00
2018-04-07T10:53:57.688Z,16.00
2018-04-07T10:56:28.905Z,16.10
2018-04-07T10:59:00.126Z,16.10
2018-04-07T11:01:31.401Z,16.10
2018-04-07T11:04:03.332Z,16.30
2018-04-07T11:06:35.647Z,16.40
2018-04-07T11:09:06.866Z,16.40
2018-04-07T11:11:38.091Z,16.50
2018-04-07T11:14:10.121Z,16.70
2018-04-07T11:16:41.323Z,16.70
2018-04-07T11:19:12.564Z,16.80
2018-04-07T11:21:44.049Z,16.70
2018-04-07T11:24:15.312Z,16.70
2018-04-07T11:26:46.824Z,16.90
2018-04-07T11:29:18.032Z,16.90
2018-04-07T11:31:49.972Z,17.00
2018-04-07T11:34:21.172Z,17.00
2018-04-07T11:36:52.403Z,17.10
2018-04-07T11:39:23.651Z,17.20
2018-04-07T11:41:54.903Z,17.30
2018-04-07T11:44:26.146Z,17.10
2018-04-07T11:46:57.391Z,17.20
2018-04-07T11:49:28.564Z,17.30
2018-04-07T11:51:59.842Z,17.30
2018-04-07T11:54:31.902Z,17.50
2018-04-07T11:57:03.843Z,17.60
2018-04-07T11:59:35.055Z,17.60
2018-04-07T12:02:07.112Z,17.70
2018-04-07T12:04:38.365Z,17.80
2018-04-07T12:07:09.617Z,17.80
2018-04-07T12:09:41.169Z,17.80
2018-04-07T12:12:12.392Z,17.90
2018-04-07T12:14:43.690Z,18.00
2018-04-07T12:17:14.916Z,18.10
2018-04-07T12:19:46.200Z,18.00
2018-04-07T12:22:17.506Z,18.10
2018-04-07T12:24:48.728Z,18.10
2018-04-07T12:27:19.983Z,18.10
2018-04-07T12:29:51.236Z,18.30
2018-04-07T12:32:22.441Z,18.40
2018-04-07T12:34:53.674Z,18.30
2018-04-07T12:37:25.647Z,18.30
2018-04-07T12:39:56.847Z,18.30
2018-04-07T12:42:29.693Z,18.50
2018-04-07T12:45:00.915Z,18.50
2018-04-07T12:47:32.375Z,18.50
2018-04-07T12:50:03.591Z,18.50
2018-04-07T12:52:35.532Z,18.50
2018-04-07T12:55:06.774Z,18.50
2018-04-07T12:57:38.764Z,18.70
2018-04-07T13:00:09.976Z,18.80
2018-04-07T13:02:42.039Z,18.90
2018-04-07T13:05:13.231Z,18.90
2018-04-07T13:07:44.436Z,19.00
2018-04-07T13:10:15.644Z,19.00
2018-04-07T13:12:46.886Z,19.00
2018-04-07T13:15:18.102Z,19.10
2018-04-07T13:17:49.299Z,19.20
2018-04-07T13:20:21.316Z,19.20
2018-04-07T13:22:52.621Z,19.20
2018-04-07T13:25:23.879Z,19.30
2018-04-07T13:27:55.891Z,19.30
2018-04-07T13:30:27.423Z,19.30
2018-04-07T13:32:58.617Z,19.40
2018-04-07T13:35:29.842Z,19.40
2018-04-07T13:38:01.024Z,19.30
2018-04-07T13:40:32.987Z,19.40
2018-04-07T13:43:04.288Z,19.40
2018-04-07T13:45:35.540Z,19.50
2018-04-07T13:48:06.754Z,19.50
2018-04-07T13:50:37.965Z,19.60
2018-04-07T13:53:09.212Z,19.60
2018-04-07T13:55:41.176Z,19.60
2018-04-07T13:58:13.095Z,19.70
2018-04-07T14:00:44.374Z,19.60
2018-04-07T14:03:16.349Z,19.80
2018-04-07T14:05:47.582Z,19.70
2018-04-07T14:08:18.819Z,19.80
2018-04-07T14:10:50.746Z,19.80
2018-04-07T14:13:21.988Z,19.80
2018-04-07T14:15:53.163Z,19.80
2018-04-07T14:18:24.438Z,19.80
2018-04-07T14:20:55.584Z,19.80
2018-04-07T14:23:27.999Z,19.80
2018-04-07T14:25:59.200Z,19.80
2018-04-07T14:28:30.415Z,19.80
2018-04-07T14:31:01.582Z,19.90
2018-04-07T14:33:32.793Z,19.90
2018-04-07T14:36:04.047Z,19.90
2018-04-07T14:38:36.015Z,19.90
2018-04-07T14:41:07.943Z,19.80
2018-04-07T14:43:40.140Z,19.80
2018-04-07T14:46:11.363Z,19.80
2018-04-07T14:48:43.337Z,19.90
2018-04-07T14:51:15.305Z,19.90
2018-04-07T14:53:47.258Z,19.90
2018-04-07T14:56:19.205Z,19.90
2018-04-07T14:58:50.490Z,19.90
2018-04-07T15:01:21.711Z,19.90
2018-04-07T15:03:53.746Z,19.90
2018-04-07T15:06:24.948Z,19.90
2018-04-07T15:08:56.190Z,19.90
2018-04-07T15:11:27.408Z,20.00
2018-04-07T15:13:58.604Z,19.90
2018-04-07T15:16:29.881Z,19.80
2018-04-07T15:19:01.056Z,19.80
2018-04-07T15:21:32.317Z,19.90
2018-04-07T15:24:03.576Z,19.90
2018-04-07T15:26:34.779Z,19.80
2018-04-07T15:29:06.049Z,19.80
2018-04-07T15:31:37.258Z,19.80
2018-04-07T15:34:09.303Z,19.60
2018-04-07T15:36:40.496Z,19.60
2018-04-07T15:39:11.661Z,19.60
2018-04-07T15:41:42.900Z,19.60
2018-04-07T15:44:14.122Z,19.60
2018-04-07T15:46:45.320Z,19.60
2018-04-07T15:49:16.541Z,19.60
2018-04-07T15:51:47.713Z,19.50
2018-04-07T15:54:20.040Z,19.40
2018-04-07T15:56:51.332Z,19.40
2018-04-07T15:59:22.510Z,19.40
2018-04-07T16:01:53.731Z,19.40
2018-04-07T16:04:25.092Z,19.50
2018-04-07T16:06:57.041Z,19.40
2018-04-07T16:09:28.260Z,19.40
2018-04-07T16:11:59.514Z,19.40
2018-04-07T16:14:31.482Z,19.40
2018-04-07T16:17:03.279Z,19.40
2018-04-07T16:19:34.492Z,19.40
2018-04-07T16:22:06.470Z,19.40
2018-04-07T16:24:37.740Z,19.30
2018-04-07T16:27:08.975Z,19.40
2018-04-07T16:29:40.255Z,19.30
2018-04-07T16:32:11.436Z,19.20
2018-04-07T16:34:43.428Z,19.20
2018-04-07T16:37:14.700Z,19.10
2018-04-07T16:39:46.711Z,19.10
2018-04-07T16:42:17.916Z,19.10
2018-04-07T16:44:49.263Z,19.10
2018-04-07T16:47:20.461Z,19.10
2018-04-07T16:49:51.704Z,19.00
2018-04-07T16:52:22.928Z,18.90
2018-04-07T16:54:54.179Z,18.90
2018-04-07T16:57:26.089Z,18.70
2018-04-07T16:59:57.355Z,18.60
2018-04-07T17:02:29.325Z,18.70
2018-04-07T17:05:00.919Z,18.70
2018-04-07T17:07:32.124Z,18.70
2018-04-07T17:10:03.384Z,18.60
2018-04-07T17:12:35.397Z,18.50
2018-04-07T17:15:06.667Z,18.50
2018-04-07T17:17:37.928Z,18.50
2018-04-07T17:20:09.910Z,18.40
2018-04-07T17:22:41.076Z,18.40
2018-04-07T17:25:12.375Z,18.40
2018-04-07T17:27:44.340Z,18.30
2018-04-07T17:30:16.330Z,18.20
2018-04-07T17:32:47.611Z,18.20
2018-04-07T17:35:18.832Z,18.10
2018-04-07T17:37:50.072Z,18.10
2018-04-07T17:40:21.276Z,18.00
2018-04-07T17:42:53.398Z,17.90
2018-04-07T17:45:25.463Z,17.80
2018-04-07T17:47:56.713Z,17.80
2018-04-07T17:50:27.973Z,17.80
2018-04-07T17:52:59.170Z,17.70
2018-04-07T17:55:31.248Z,17.60
2018-04-07T17:58:02.467Z,17.60
2018-04-07T18:00:33.670Z,17.50
2018-04-07T18:03:04.887Z,17.40
2018-04-07T18:05:36.176Z,17.30
2018-04-07T18:08:07.356Z,17.30
2018-04-07T18:10:38.629Z,17.20
2018-04-07T18:13:09.960Z,17.20
2018-04-07T18:15:41.156Z,17.10
2018-04-07T18:18:12.380Z,17.00
2018-04-07T18:20:43.583Z,17.00
2018-04-07T18:23:14.768Z,16.90
2018-04-07T18:25:47.096Z,16.80
2018-04-07T18:28:18.339Z,16.80
2018-04-07T18:30:49.561Z,16.70
2018-04-07T18:33:20.774Z,16.70
2018-04-07T18:35:52.022Z,16.70
2018-04-07T18:38:23.203Z,16.60
2018-04-07T18:40:54.593Z,16.60
2018-04-07T18:43:25.806Z,16.50
2018-04-07T18:45:57.084Z,16.40
2018-04-07T18:48:28.278Z,16.40
2018-04-07T18:50:59.638Z,16.30
2018-04-07T18:53:30.847Z,16.30
2018-04-07T18:56:02.860Z,16.20
2018-04-07T18:58:34.066Z,16.10
2018-04-07T19:01:05.325Z,16.10
2018-04-07T19:03:36.544Z,16.10
2018-04-07T19:06:08.563Z,16.10
2018-04-07T19:08:39.774Z,16.00
2018-04-07T19:11:11.228Z,16.10
2018-04-07T19:13:42.440Z,16.00
2018-04-07T19:16:14.403Z,16.00
2018-04-07T19:18:45.669Z,16.00
2018-04-07T19:21:16.924Z,16.00
2018-04-07T19:23:48.180Z,16.00
2018-04-07T19:26:19.404Z,15.90
2018-04-07T19:28:50.627Z,15.90
2018-04-07T19:31:22.568Z,15.80
2018-04-07T19:33:53.794Z,15.70
2018-04-07T19:36:24.993Z,15.70
2018-04-07T19:38:56.221Z,15.70
2018-04-07T19:41:28.260Z,15.70
2018-04-07T19:43:59.888Z,15.60
2018-04-07T19:46:31.119Z,15.60
2018-04-07T19:49:02.379Z,15.60
2018-04-07T19:51:33.598Z,15.50
2018-04-07T19:54:04.926Z,15.50
2018-04-07T19:56:36.155Z,15.50
2018-04-07T19:59:08.122Z,15.40
2018-04-07T20:01:39.364Z,15.40
2018-04-07T20:04:11.358Z,15.40
2018-04-07T20:06:42.712Z,15.40
2018-04-07T20:09:14.742Z,15.30
2018-04-07T20:11:46.747Z,15.30
2018-04-07T20:14:17.941Z,15.20
2018-04-07T20:16:49.933Z,15.30
2018-04-07T20:19:21.247Z,15.20
2018-04-07T20:21:53.172Z,15.20
2018-04-07T20:24:24.406Z,15.20
2018-04-07T20:26:56.053Z,15.10
2018-04-07T20:29:27.276Z,15.10
2018-04-07T20:31:58.552Z,15.10
2018-04-07T20:34:29.811Z,15.10
2018-04-07T20:37:01.043Z,15.10
2018-04-07T20:39:32.256Z,15.00
2018-04-07T20:42:15.988Z,14.90
2018-04-07T20:44:47.179Z,14.90
2018-04-07T20:47:18.450Z,14.90
2018-04-07T20:49:50.407Z,14.90
2018-04-07T20:52:22.364Z,14.80
2018-04-07T20:54:54.572Z,14.80
2018-04-07T20:57:25.860Z,14.80
2018-04-07T20:59:59.265Z,14.80
2018-04-07T21:02:31.451Z,14.80
2018-04-07T21:05:03.400Z,14.70
2018-04-07T21:07:34.604Z,14.70
2018-04-07T21:10:06.030Z,14.70
2018-04-07T21:12:37.234Z,14.70
2018-04-07T21:15:08.472Z,14.70
2018-04-07T21:17:39.665Z,14.70
2018-04-07T21:20:10.905Z,14.70
2018-04-07T21:22:42.080Z,14.60
2018-04-07T21:25:13.321Z,14.60
2018-04-07T21:27:44.571Z,14.60
2018-04-07T21:30:16.473Z,14.60
2018-04-07T21:32:47.752Z,14.60
2018-04-07T21:35:18.946Z,14.60
2018-04-07T21:37:50.239Z,14.50
2018-04-07T21:40:21.453Z,14.50
2018-04-07T21:42:52.707Z,14.50
2018-04-07T21:45:23.945Z,14.50
2018-04-07T21:47:55.939Z,14.50
2018-04-07T21:50:27.179Z,14.50
2018-04-07T21:52:58.423Z,14.50
2018-04-07T21:55:29.605Z,14.50
2018-04-07T21:58:00.798Z,14.50
2018-04-07T22:00:32.039Z,14.50
2018-04-07T22:03:03.239Z,14.50
2018-04-07T22:05:34.433Z,14.50
2018-04-07T22:08:05.726Z,14.50
2018-04-07T22:10:36.949Z,14.50
2018-04-07T22:13:08.434Z,14.50
2018-04-07T22:15:40.421Z,14.40
2018-04-07T22:18:11.636Z,14.40
2018-04-07T22:20:42.820Z,14.40
2018-04-07T22:23:14.031Z,14.40
2018-04-07T22:25:45.993Z,14.30
2018-04-07T22:28:18.008Z,14.20
2018-04-07T22:30:49.202Z,14.20
2018-04-07T22:33:21.242Z,14.20
2018-04-07T22:35:52.895Z,14.10
2018-04-07T22:38:24.220Z,14.20
2018-04-07T22:40:55.447Z,14.20
2018-04-07T22:43:26.936Z,14.10
2018-04-07T22:45:58.135Z,14.20
2018-04-07T22:48:29.432Z,14.20
2018-04-07T22:51:00.648Z,14.20
2018-04-07T22:53:31.869Z,14.20
2018-04-07T22:56:03.096Z,14.20
2018-04-07T22:58:34.334Z,14.20
2018-04-07T23:01:05.576Z,14.20
2018-04-07T23:03:37.523Z,14.20
2018-04-07T23:06:09.493Z,14.20
2018-04-07T23:08:41.464Z,14.10
2018-04-07T23:11:13.440Z,14.10
2018-04-07T23:13:44.650Z,14.10
2018-04-07T23:16:17.314Z,14.00
2018-04-07T23:18:48.594Z,14.00
2018-04-07T23:21:19.803Z,14.00
2018-04-07T23:23:50.995Z,13.90
2018-04-07T23:26:22.240Z,13.90
2018-04-07T23:28:55.462Z,13.90
2018-04-07T23:31:26.672Z,13.90
2018-04-07T23:33:58.133Z,13.90
2018-04-07T23:36:29.364Z,13.90
2018-04-07T23:39:00.629Z,13.90
2018-04-07T23:41:31.825Z,13.90
2018-04-07T23:44:03.811Z,13.90
2018-04-07T23:46:35.013Z,13.90
2018-04-07T23:49:06.318Z,13.80
2018-04-07T23:51:37.504Z,13.80
2018-04-07T23:54:08.911Z,13.80
2018-04-07T23:56:40.105Z,13.80
2018-04-07T23:59:12.110Z,13.80
